sensor_id;sensor_type;location;lat;lon;timestamp;P1;durP1;ratioP1;P2;durP2;ratioP2
12910;SDS011;6523;49.758;6.120;2024-03-29T00:00:40;1.67;;;0.70;;
12910;SDS011;6523;49.758;6.120;2024-03-29T00:03:07;2.33;;;1.17;;
12910;SDS011;6523;49.758;6.120;2024-03-29T00:05:33;1.60;;;0.93;;
12910;SDS011;6523;49.758;6.120;2024-03-29T00:07:59;2.63;;;0.93;;
12910;SDS011;6523;49.758;6.120;2024-03-29T00:10:24;1.87;;;0.90;;
12910;SDS011;6523;49.758;6.120;2024-03-29T00:12:50;6.17;;;1.20;;
12910;SDS011;6523;49.758;6.120;2024-03-29T00:15:16;4.27;;;1.10;;
12910;SDS011;6523;49.758;6.120;2024-03-29T00:17:42;3.07;;;1.07;;
12910;SDS011;6523;49.758;6.120;2024-03-29T00:20:07;2.47;;;1.03;;
12910;SDS011;6523;49.758;6.120;2024-03-29T00:22:34;7.87;;;0.97;;
12910;SDS011;6523;49.758;6.120;2024-03-29T00:24:59;3.07;;;0.80;;
12910;SDS011;6523;49.758;6.120;2024-03-29T00:27:25;2.23;;;1.00;;
12910;SDS011;6523;49.758;6.120;2024-03-29T00:29:53;2.03;;;0.80;;
12910;SDS011;6523;49.758;6.120;2024-03-29T00:32:19;1.10;;;1.00;;
12910;SDS011;6523;49.758;6.120;2024-03-29T00:34:45;2.20;;;1.03;;
12910;SDS011;6523;49.758;6.120;2024-03-29T00:37:11;1.43;;;1.03;;
12910;SDS011;6523;49.758;6.120;2024-03-29T00:39:37;1.07;;;0.70;;
12910;SDS011;6523;49.758;6.120;2024-03-29T00:42:03;2.87;;;1.60;;
12910;SDS011;6523;49.758;6.120;2024-03-29T00:44:31;3.20;;;1.07;;
12910;SDS011;6523;49.758;6.120;2024-03-29T00:46:57;1.67;;;0.90;;
12910;SDS011;6523;49.758;6.120;2024-03-29T00:49:23;3.37;;;0.93;;
12910;SDS011;6523;49.758;6.120;2024-03-29T00:51:48;3.97;;;1.57;;
12910;SDS011;6523;49.758;6.120;2024-03-29T00:54:14;1.00;;;0.90;;
12910;SDS011;6523;49.758;6.120;2024-03-29T00:56:40;1.70;;;1.00;;
12910;SDS011;6523;49.758;6.120;2024-03-29T00:59:05;1.50;;;1.00;;
12910;SDS011;6523;49.758;6.120;2024-03-29T01:01:31;3.53;;;1.57;;
12910;SDS011;6523;49.758;6.120;2024-03-29T01:03:57;1.97;;;0.90;;
12910;SDS011;6523;49.758;6.120;2024-03-29T01:06:23;2.80;;;1.23;;
12910;SDS011;6523;49.758;6.120;2024-03-29T01:08:48;1.67;;;0.80;;
12910;SDS011;6523;49.758;6.120;2024-03-29T01:11:14;1.50;;;0.90;;
12910;SDS011;6523;49.758;6.120;2024-03-29T01:13:40;1.67;;;1.10;;
12910;SDS011;6523;49.758;6.120;2024-03-29T01:16:06;1.97;;;1.00;;
12910;SDS011;6523;49.758;6.120;2024-03-29T01:18:31;3.07;;;1.20;;
12910;SDS011;6523;49.758;6.120;2024-03-29T01:20:58;2.07;;;0.90;;
12910;SDS011;6523;49.758;6.120;2024-03-29T01:23:24;1.37;;;0.80;;
12910;SDS011;6523;49.758;6.120;2024-03-29T01:25:50;2.30;;;0.83;;
12910;SDS011;6523;49.758;6.120;2024-03-29T01:28:15;1.80;;;0.80;;
12910;SDS011;6523;49.758;6.120;2024-03-29T01:30:41;3.00;;;1.00;;
12910;SDS011;6523;49.758;6.120;2024-03-29T01:33:07;1.83;;;0.90;;
12910;SDS011;6523;49.758;6.120;2024-03-29T01:35:32;2.40;;;1.00;;
12910;SDS011;6523;49.758;6.120;2024-03-29T01:37:58;4.30;;;1.17;;
12910;SDS011;6523;49.758;6.120;2024-03-29T01:40:26;2.03;;;0.80;;
12910;SDS011;6523;49.758;6.120;2024-03-29T01:42:53;1.50;;;0.80;;
12910;SDS011;6523;49.758;6.120;2024-03-29T01:45:19;1.33;;;1.20;;
12910;SDS011;6523;49.758;6.120;2024-03-29T01:47:45;2.20;;;1.00;;
12910;SDS011;6523;49.758;6.120;2024-03-29T01:50:11;1.43;;;1.10;;
12910;SDS011;6523;49.758;6.120;2024-03-29T01:52:37;3.20;;;1.17;;
12910;SDS011;6523;49.758;6.120;2024-03-29T01:55:04;1.93;;;1.00;;
12910;SDS011;6523;49.758;6.120;2024-03-29T01:57:30;2.57;;;1.20;;
12910;SDS011;6523;49.758;6.120;2024-03-29T01:59:56;1.23;;;0.90;;
12910;SDS011;6523;49.758;6.120;2024-03-29T02:02:22;1.03;;;0.90;;
12910;SDS011;6523;49.758;6.120;2024-03-29T02:04:49;2.97;;;1.07;;
12910;SDS011;6523;49.758;6.120;2024-03-29T02:07:15;2.73;;;1.10;;
12910;SDS011;6523;49.758;6.120;2024-03-29T02:09:41;2.50;;;1.03;;
12910;SDS011;6523;49.758;6.120;2024-03-29T02:12:07;2.70;;;1.27;;
12910;SDS011;6523;49.758;6.120;2024-03-29T02:14:32;2.03;;;1.03;;
12910;SDS011;6523;49.758;6.120;2024-03-29T02:16:58;1.73;;;1.00;;
12910;SDS011;6523;49.758;6.120;2024-03-29T02:19:24;2.70;;;1.10;;
12910;SDS011;6523;49.758;6.120;2024-03-29T02:21:49;1.33;;;1.17;;
12910;SDS011;6523;49.758;6.120;2024-03-29T02:24:20;3.30;;;1.47;;
12910;SDS011;6523;49.758;6.120;2024-03-29T02:26:46;1.57;;;1.20;;
12910;SDS011;6523;49.758;6.120;2024-03-29T02:29:12;3.27;;;1.33;;
12910;SDS011;6523;49.758;6.120;2024-03-29T02:31:37;1.83;;;1.20;;
12910;SDS011;6523;49.758;6.120;2024-03-29T02:34:03;1.50;;;1.10;;
12910;SDS011;6523;49.758;6.120;2024-03-29T02:36:29;2.67;;;1.20;;
12910;SDS011;6523;49.758;6.120;2024-03-29T02:38:54;2.47;;;1.40;;
12910;SDS011;6523;49.758;6.120;2024-03-29T02:41:20;2.07;;;1.10;;
12910;SDS011;6523;49.758;6.120;2024-03-29T02:43:47;1.63;;;1.37;;
12910;SDS011;6523;49.758;6.120;2024-03-29T02:46:12;1.53;;;1.30;;
12910;SDS011;6523;49.758;6.120;2024-03-29T02:48:38;4.33;;;1.40;;
12910;SDS011;6523;49.758;6.120;2024-03-29T02:51:04;2.60;;;1.80;;
12910;SDS011;6523;49.758;6.120;2024-03-29T02:53:29;2.47;;;1.80;;
12910;SDS011;6523;49.758;6.120;2024-03-29T02:55:55;1.67;;;1.30;;
12910;SDS011;6523;49.758;6.120;2024-03-29T02:58:21;2.57;;;1.10;;
12910;SDS011;6523;49.758;6.120;2024-03-29T03:00:46;2.40;;;1.47;;
12910;SDS011;6523;49.758;6.120;2024-03-29T03:03:14;2.73;;;1.30;;
12910;SDS011;6523;49.758;6.120;2024-03-29T03:05:40;2.40;;;1.10;;
12910;SDS011;6523;49.758;6.120;2024-03-29T03:08:06;5.50;;;1.40;;
12910;SDS011;6523;49.758;6.120;2024-03-29T03:10:50;1.83;;;1.00;;
12910;SDS011;6523;49.758;6.120;2024-03-29T03:13:25;1.20;;;1.10;;
12910;SDS011;6523;49.758;6.120;2024-03-29T03:15:54;2.73;;;1.10;;
12910;SDS011;6523;49.758;6.120;2024-03-29T03:18:20;2.23;;;1.20;;
12910;SDS011;6523;49.758;6.120;2024-03-29T03:23:22;4.03;;;1.60;;
12910;SDS011;6523;49.758;6.120;2024-03-29T03:25:59;1.60;;;1.30;;
12910;SDS011;6523;49.758;6.120;2024-03-29T03:28:28;4.37;;;2.07;;
12910;SDS011;6523;49.758;6.120;2024-03-29T03:30:53;1.83;;;1.30;;
12910;SDS011;6523;49.758;6.120;2024-03-29T03:33:19;2.07;;;1.33;;
12910;SDS011;6523;49.758;6.120;2024-03-29T03:35:45;2.87;;;1.47;;
12910;SDS011;6523;49.758;6.120;2024-03-29T03:38:12;1.37;;;1.10;;
12910;SDS011;6523;49.758;6.120;2024-03-29T03:40:38;2.43;;;1.20;;
12910;SDS011;6523;49.758;6.120;2024-03-29T03:43:05;4.63;;;1.70;;
12910;SDS011;6523;49.758;6.120;2024-03-29T03:45:36;3.63;;;1.50;;
12910;SDS011;6523;49.758;6.120;2024-03-29T03:48:04;4.20;;;1.27;;
12910;SDS011;6523;49.758;6.120;2024-03-29T03:50:31;3.03;;;1.40;;
12910;SDS011;6523;49.758;6.120;2024-03-29T03:52:57;1.63;;;1.10;;
12910;SDS011;6523;49.758;6.120;2024-03-29T03:55:23;3.50;;;1.27;;
12910;SDS011;6523;49.758;6.120;2024-03-29T03:57:49;3.50;;;1.43;;
12910;SDS011;6523;49.758;6.120;2024-03-29T04:00:15;3.07;;;1.70;;
12910;SDS011;6523;49.758;6.120;2024-03-29T04:02:46;3.73;;;1.30;;
12910;SDS011;6523;49.758;6.120;2024-03-29T04:05:18;1.30;;;1.20;;
12910;SDS011;6523;49.758;6.120;2024-03-29T04:07:45;4.30;;;1.47;;
12910;SDS011;6523;49.758;6.120;2024-03-29T04:10:11;2.80;;;1.40;;
12910;SDS011;6523;49.758;6.120;2024-03-29T04:12:37;1.73;;;1.10;;
12910;SDS011;6523;49.758;6.120;2024-03-29T04:15:03;2.30;;;1.30;;
12910;SDS011;6523;49.758;6.120;2024-03-29T04:17:30;1.90;;;1.23;;
12910;SDS011;6523;49.758;6.120;2024-03-29T04:19:56;1.43;;;1.23;;
12910;SDS011;6523;49.758;6.120;2024-03-29T04:22:22;2.67;;;1.40;;
12910;SDS011;6523;49.758;6.120;2024-03-29T04:24:48;1.70;;;1.10;;
12910;SDS011;6523;49.758;6.120;2024-03-29T04:27:14;2.70;;;1.20;;
12910;SDS011;6523;49.758;6.120;2024-03-29T04:29:40;2.53;;;1.40;;
12910;SDS011;6523;49.758;6.120;2024-03-29T04:32:06;2.77;;;1.37;;
12910;SDS011;6523;49.758;6.120;2024-03-29T04:34:31;2.17;;;1.40;;
12910;SDS011;6523;49.758;6.120;2024-03-29T04:36:58;2.20;;;1.50;;
12910;SDS011;6523;49.758;6.120;2024-03-29T04:39:23;2.90;;;1.57;;
12910;SDS011;6523;49.758;6.120;2024-03-29T04:41:49;1.73;;;1.40;;
12910;SDS011;6523;49.758;6.120;2024-03-29T04:44:22;2.30;;;1.40;;
12910;SDS011;6523;49.758;6.120;2024-03-29T04:46:49;2.50;;;1.40;;
12910;SDS011;6523;49.758;6.120;2024-03-29T04:49:15;2.40;;;1.93;;
12910;SDS011;6523;49.758;6.120;2024-03-29T04:51:47;1.90;;;1.40;;
12910;SDS011;6523;49.758;6.120;2024-03-29T04:54:14;2.60;;;1.50;;
12910;SDS011;6523;49.758;6.120;2024-03-29T04:56:41;3.10;;;1.23;;
12910;SDS011;6523;49.758;6.120;2024-03-29T04:59:07;2.53;;;1.13;;
12910;SDS011;6523;49.758;6.120;2024-03-29T05:01:34;2.87;;;1.33;;
12910;SDS011;6523;49.758;6.120;2024-03-29T05:04:00;1.50;;;1.40;;
12910;SDS011;6523;49.758;6.120;2024-03-29T05:06:26;2.07;;;1.63;;
12910;SDS011;6523;49.758;6.120;2024-03-29T05:08:51;1.70;;;1.40;;
12910;SDS011;6523;49.758;6.120;2024-03-29T05:11:17;3.87;;;1.60;;
12910;SDS011;6523;49.758;6.120;2024-03-29T05:13:44;1.60;;;1.50;;
12910;SDS011;6523;49.758;6.120;2024-03-29T05:16:10;1.63;;;1.30;;
12910;SDS011;6523;49.758;6.120;2024-03-29T05:18:35;2.57;;;1.40;;
12910;SDS011;6523;49.758;6.120;2024-03-29T05:21:01;1.77;;;1.67;;
12910;SDS011;6523;49.758;6.120;2024-03-29T05:23:27;2.53;;;1.30;;
12910;SDS011;6523;49.758;6.120;2024-03-29T05:25:52;4.90;;;1.73;;
12910;SDS011;6523;49.758;6.120;2024-03-29T05:28:18;2.77;;;1.50;;
12910;SDS011;6523;49.758;6.120;2024-03-29T05:30:44;2.50;;;1.67;;
12910;SDS011;6523;49.758;6.120;2024-03-29T05:33:10;1.47;;;1.30;;
12910;SDS011;6523;49.758;6.120;2024-03-29T05:35:36;2.17;;;1.30;;
12910;SDS011;6523;49.758;6.120;2024-03-29T05:38:02;2.80;;;1.30;;
12910;SDS011;6523;49.758;6.120;2024-03-29T05:40:27;2.83;;;1.30;;
12910;SDS011;6523;49.758;6.120;2024-03-29T05:42:54;3.40;;;1.57;;
12910;SDS011;6523;49.758;6.120;2024-03-29T05:45:23;1.93;;;1.23;;
12910;SDS011;6523;49.758;6.120;2024-03-29T05:47:51;2.97;;;1.67;;
12910;SDS011;6523;49.758;6.120;2024-03-29T05:50:17;2.97;;;1.53;;
12910;SDS011;6523;49.758;6.120;2024-03-29T05:52:43;1.90;;;1.70;;
12910;SDS011;6523;49.758;6.120;2024-03-29T05:55:08;2.17;;;1.37;;
12910;SDS011;6523;49.758;6.120;2024-03-29T05:57:34;2.53;;;1.57;;
12910;SDS011;6523;49.758;6.120;2024-03-29T06:00:05;4.47;;;1.60;;
12910;SDS011;6523;49.758;6.120;2024-03-29T06:02:31;3.83;;;1.60;;
12910;SDS011;6523;49.758;6.120;2024-03-29T06:04:56;1.40;;;1.30;;
12910;SDS011;6523;49.758;6.120;2024-03-29T06:07:22;2.67;;;1.50;;
12910;SDS011;6523;49.758;6.120;2024-03-29T06:09:48;2.47;;;1.20;;
12910;SDS011;6523;49.758;6.120;2024-03-29T06:12:13;3.60;;;1.47;;
12910;SDS011;6523;49.758;6.120;2024-03-29T06:14:39;2.03;;;1.40;;
12910;SDS011;6523;49.758;6.120;2024-03-29T06:17:23;1.63;;;1.30;;
12910;SDS011;6523;49.758;6.120;2024-03-29T06:19:53;1.70;;;1.60;;
12910;SDS011;6523;49.758;6.120;2024-03-29T06:22:23;3.60;;;1.30;;
12910;SDS011;6523;49.758;6.120;2024-03-29T06:24:50;2.33;;;1.27;;
12910;SDS011;6523;49.758;6.120;2024-03-29T06:27:19;1.33;;;1.00;;
12910;SDS011;6523;49.758;6.120;2024-03-29T06:29:47;1.30;;;1.20;;
12910;SDS011;6523;49.758;6.120;2024-03-29T06:32:14;2.33;;;1.10;;
12910;SDS011;6523;49.758;6.120;2024-03-29T06:34:41;2.73;;;1.40;;
12910;SDS011;6523;49.758;6.120;2024-03-29T06:37:06;3.13;;;1.30;;
12910;SDS011;6523;49.758;6.120;2024-03-29T06:39:32;3.03;;;1.20;;
12910;SDS011;6523;49.758;6.120;2024-03-29T06:41:58;2.47;;;1.27;;
12910;SDS011;6523;49.758;6.120;2024-03-29T06:44:24;1.50;;;1.40;;
12910;SDS011;6523;49.758;6.120;2024-03-29T06:46:50;1.73;;;1.17;;
12910;SDS011;6523;49.758;6.120;2024-03-29T06:49:16;1.80;;;1.13;;
12910;SDS011;6523;49.758;6.120;2024-03-29T06:51:42;0.97;;;0.90;;
12910;SDS011;6523;49.758;6.120;2024-03-29T06:54:08;2.07;;;0.80;;
12910;SDS011;6523;49.758;6.120;2024-03-29T06:56:34;1.07;;;0.90;;
12910;SDS011;6523;49.758;6.120;2024-03-29T06:58:59;1.40;;;1.07;;
12910;SDS011;6523;49.758;6.120;2024-03-29T07:01:25;1.07;;;1.00;;
12910;SDS011;6523;49.758;6.120;2024-03-29T07:03:51;2.97;;;0.93;;
12910;SDS011;6523;49.758;6.120;2024-03-29T07:06:17;2.70;;;1.13;;
12910;SDS011;6523;49.758;6.120;2024-03-29T07:08:42;1.70;;;1.10;;
12910;SDS011;6523;49.758;6.120;2024-03-29T07:11:08;1.90;;;0.87;;
12910;SDS011;6523;49.758;6.120;2024-03-29T07:13:35;1.20;;;1.10;;
12910;SDS011;6523;49.758;6.120;2024-03-29T07:16:01;2.17;;;0.90;;
12910;SDS011;6523;49.758;6.120;2024-03-29T07:18:27;1.47;;;0.90;;
12910;SDS011;6523;49.758;6.120;2024-03-29T07:20:53;1.20;;;1.10;;
12910;SDS011;6523;49.758;6.120;2024-03-29T07:23:19;0.90;;;0.90;;
12910;SDS011;6523;49.758;6.120;2024-03-29T07:25:46;1.10;;;1.00;;
12910;SDS011;6523;49.758;6.120;2024-03-29T07:28:26;1.27;;;0.90;;
12910;SDS011;6523;49.758;6.120;2024-03-29T07:30:52;0.80;;;0.80;;
12910;SDS011;6523;49.758;6.120;2024-03-29T07:33:21;1.47;;;1.00;;
12910;SDS011;6523;49.758;6.120;2024-03-29T07:35:54;2.73;;;0.97;;
12910;SDS011;6523;49.758;6.120;2024-03-29T07:38:20;1.27;;;1.10;;
12910;SDS011;6523;49.758;6.120;2024-03-29T07:40:47;1.10;;;0.97;;
12910;SDS011;6523;49.758;6.120;2024-03-29T07:43:13;0.60;;;0.60;;
12910;SDS011;6523;49.758;6.120;2024-03-29T07:45:41;1.60;;;0.80;;
12910;SDS011;6523;49.758;6.120;2024-03-29T07:48:13;2.13;;;0.90;;
12910;SDS011;6523;49.758;6.120;2024-03-29T07:50:40;1.67;;;1.30;;
12910;SDS011;6523;49.758;6.120;2024-03-29T07:53:06;1.20;;;0.90;;
12910;SDS011;6523;49.758;6.120;2024-03-29T07:55:31;1.83;;;0.90;;
12910;SDS011;6523;49.758;6.120;2024-03-29T07:57:57;2.10;;;1.13;;
12910;SDS011;6523;49.758;6.120;2024-03-29T08:00:23;2.50;;;1.30;;
12910;SDS011;6523;49.758;6.120;2024-03-29T08:02:50;1.30;;;1.10;;
12910;SDS011;6523;49.758;6.120;2024-03-29T08:05:17;2.73;;;1.33;;
12910;SDS011;6523;49.758;6.120;2024-03-29T08:07:43;1.00;;;0.87;;
12910;SDS011;6523;49.758;6.120;2024-03-29T08:10:09;2.03;;;1.20;;
12910;SDS011;6523;49.758;6.120;2024-03-29T08:12:35;2.47;;;1.20;;
12910;SDS011;6523;49.758;6.120;2024-03-29T08:15:02;1.63;;;1.17;;
12910;SDS011;6523;49.758;6.120;2024-03-29T08:17:28;1.57;;;1.10;;
12910;SDS011;6523;49.758;6.120;2024-03-29T08:19:54;1.20;;;1.10;;
12910;SDS011;6523;49.758;6.120;2024-03-29T08:22:20;3.13;;;1.27;;
12910;SDS011;6523;49.758;6.120;2024-03-29T08:24:45;2.50;;;1.00;;
12910;SDS011;6523;49.758;6.120;2024-03-29T08:27:11;1.73;;;1.23;;
12910;SDS011;6523;49.758;6.120;2024-03-29T08:29:37;3.50;;;1.10;;
12910;SDS011;6523;49.758;6.120;2024-03-29T08:32:03;2.10;;;1.30;;
12910;SDS011;6523;49.758;6.120;2024-03-29T08:34:29;2.00;;;1.10;;
12910;SDS011;6523;49.758;6.120;2024-03-29T08:37:00;1.90;;;1.40;;
12910;SDS011;6523;49.758;6.120;2024-03-29T08:39:27;1.73;;;1.33;;
12910;SDS011;6523;49.758;6.120;2024-03-29T08:41:53;1.40;;;1.30;;
12910;SDS011;6523;49.758;6.120;2024-03-29T08:44:19;2.67;;;1.37;;
12910;SDS011;6523;49.758;6.120;2024-03-29T08:46:45;1.63;;;1.53;;
12910;SDS011;6523;49.758;6.120;2024-03-29T08:49:10;3.73;;;1.70;;
12910;SDS011;6523;49.758;6.120;2024-03-29T08:51:36;4.33;;;1.60;;
12910;SDS011;6523;49.758;6.120;2024-03-29T08:54:01;2.00;;;1.60;;
12910;SDS011;6523;49.758;6.120;2024-03-29T08:56:30;1.40;;;1.30;;
12910;SDS011;6523;49.758;6.120;2024-03-29T08:59:02;1.53;;;1.30;;
12910;SDS011;6523;49.758;6.120;2024-03-29T09:01:32;2.50;;;1.60;;
12910;SDS011;6523;49.758;6.120;2024-03-29T09:03:58;5.53;;;1.50;;
12910;SDS011;6523;49.758;6.120;2024-03-29T09:06:24;2.60;;;1.67;;
12910;SDS011;6523;49.758;6.120;2024-03-29T09:08:50;3.30;;;2.20;;
12910;SDS011;6523;49.758;6.120;2024-03-29T09:11:15;4.80;;;1.90;;
12910;SDS011;6523;49.758;6.120;2024-03-29T09:13:41;3.03;;;1.83;;
12910;SDS011;6523;49.758;6.120;2024-03-29T09:16:07;1.60;;;1.50;;
12910;SDS011;6523;49.758;6.120;2024-03-29T09:18:33;1.93;;;1.70;;
12910;SDS011;6523;49.758;6.120;2024-03-29T09:20:59;2.57;;;1.83;;
12910;SDS011;6523;49.758;6.120;2024-03-29T09:23:25;2.27;;;1.97;;
12910;SDS011;6523;49.758;6.120;2024-03-29T09:25:55;2.53;;;1.93;;
12910;SDS011;6523;49.758;6.120;2024-03-29T09:28:22;2.97;;;2.07;;
12910;SDS011;6523;49.758;6.120;2024-03-29T09:30:48;1.73;;;1.63;;
12910;SDS011;6523;49.758;6.120;2024-03-29T09:33:14;2.47;;;2.23;;
12910;SDS011;6523;49.758;6.120;2024-03-29T09:35:40;2.53;;;2.33;;
12910;SDS011;6523;49.758;6.120;2024-03-29T09:38:05;3.20;;;2.23;;
12910;SDS011;6523;49.758;6.120;2024-03-29T09:40:31;2.73;;;1.87;;
12910;SDS011;6523;49.758;6.120;2024-03-29T09:42:59;2.83;;;1.87;;
12910;SDS011;6523;49.758;6.120;2024-03-29T09:45:30;2.17;;;2.00;;
12910;SDS011;6523;49.758;6.120;2024-03-29T09:48:03;2.50;;;1.70;;
12910;SDS011;6523;49.758;6.120;2024-03-29T09:50:30;2.43;;;2.03;;
12910;SDS011;6523;49.758;6.120;2024-03-29T09:53:00;2.30;;;2.10;;
12910;SDS011;6523;49.758;6.120;2024-03-29T09:55:25;2.27;;;2.10;;
12910;SDS011;6523;49.758;6.120;2024-03-29T09:57:53;2.60;;;2.13;;
12910;SDS011;6523;49.758;6.120;2024-03-29T10:00:19;2.50;;;2.30;;
12910;SDS011;6523;49.758;6.120;2024-03-29T10:02:45;2.80;;;2.40;;
12910;SDS011;6523;49.758;6.120;2024-03-29T10:05:14;2.50;;;2.20;;
12910;SDS011;6523;49.758;6.120;2024-03-29T10:07:40;2.63;;;2.43;;
12910;SDS011;6523;49.758;6.120;2024-03-29T10:10:07;2.97;;;2.60;;
12910;SDS011;6523;49.758;6.120;2024-03-29T10:12:33;2.50;;;2.30;;
12910;SDS011;6523;49.758;6.120;2024-03-29T10:14:59;4.33;;;2.23;;
12910;SDS011;6523;49.758;6.120;2024-03-29T10:17:33;2.93;;;2.67;;
12910;SDS011;6523;49.758;6.120;2024-03-29T10:20:02;3.50;;;2.90;;
12910;SDS011;6523;49.758;6.120;2024-03-29T10:22:41;2.70;;;2.50;;
12910;SDS011;6523;49.758;6.120;2024-03-29T10:25:08;4.57;;;2.87;;
12910;SDS011;6523;49.758;6.120;2024-03-29T10:27:34;3.60;;;3.10;;
12910;SDS011;6523;49.758;6.120;2024-03-29T10:29:59;3.97;;;3.20;;
12910;SDS011;6523;49.758;6.120;2024-03-29T10:32:25;3.40;;;2.73;;
12910;SDS011;6523;49.758;6.120;2024-03-29T10:34:50;2.77;;;2.37;;
12910;SDS011;6523;49.758;6.120;2024-03-29T10:37:17;4.70;;;3.33;;
12910;SDS011;6523;49.758;6.120;2024-03-29T10:39:50;3.87;;;3.20;;
12910;SDS011;6523;49.758;6.120;2024-03-29T10:42:16;4.20;;;3.10;;
12910;SDS011;6523;49.758;6.120;2024-03-29T10:44:43;4.33;;;3.10;;
12910;SDS011;6523;49.758;6.120;2024-03-29T10:47:09;4.17;;;3.20;;
12910;SDS011;6523;49.758;6.120;2024-03-29T10:49:43;4.60;;;3.60;;
12910;SDS011;6523;49.758;6.120;2024-03-29T10:52:12;5.20;;;3.63;;
12910;SDS011;6523;49.758;6.120;2024-03-29T10:54:42;4.67;;;3.53;;
12910;SDS011;6523;49.758;6.120;2024-03-29T10:57:22;3.57;;;3.07;;
12910;SDS011;6523;49.758;6.120;2024-03-29T11:05:17;3.07;;;2.77;;
12910;SDS011;6523;49.758;6.120;2024-03-29T11:07:44;3.10;;;2.00;;
12910;SDS011;6523;49.758;6.120;2024-03-29T11:10:13;3.20;;;2.70;;
12910;SDS011;6523;49.758;6.120;2024-03-29T11:12:50;3.10;;;2.20;;
12910;SDS011;6523;49.758;6.120;2024-03-29T11:15:37;3.17;;;2.13;;
12910;SDS011;6523;49.758;6.120;2024-03-29T11:18:05;3.20;;;1.90;;
12910;SDS011;6523;49.758;6.120;2024-03-29T11:20:34;2.50;;;1.90;;
12910;SDS011;6523;49.758;6.120;2024-03-29T11:23:12;2.60;;;2.10;;
12910;SDS011;6523;49.758;6.120;2024-03-29T11:28:09;2.10;;;1.60;;
12910;SDS011;6523;49.758;6.120;2024-03-29T11:30:45;2.13;;;1.37;;
12910;SDS011;6523;49.758;6.120;2024-03-29T11:33:30;2.63;;;1.70;;
12910;SDS011;6523;49.758;6.120;2024-03-29T11:35:59;2.50;;;1.70;;
12910;SDS011;6523;49.758;6.120;2024-03-29T11:38:34;2.07;;;1.70;;
12910;SDS011;6523;49.758;6.120;2024-03-29T11:41:01;3.60;;;2.13;;
12910;SDS011;6523;49.758;6.120;2024-03-29T11:43:30;2.50;;;1.90;;
12910;SDS011;6523;49.758;6.120;2024-03-29T11:46:00;2.37;;;1.50;;
12910;SDS011;6523;49.758;6.120;2024-03-29T11:48:28;1.70;;;1.60;;
12910;SDS011;6523;49.758;6.120;2024-03-29T11:50:56;1.57;;;1.40;;
12910;SDS011;6523;49.758;6.120;2024-03-29T11:53:22;2.23;;;1.30;;
12910;SDS011;6523;49.758;6.120;2024-03-29T11:55:48;3.33;;;1.30;;
12910;SDS011;6523;49.758;6.120;2024-03-29T11:58:19;1.77;;;1.17;;
12910;SDS011;6523;49.758;6.120;2024-03-29T12:00:45;1.87;;;1.20;;
12910;SDS011;6523;49.758;6.120;2024-03-29T12:03:13;1.63;;;1.33;;
12910;SDS011;6523;49.758;6.120;2024-03-29T12:05:38;2.50;;;0.93;;
12910;SDS011;6523;49.758;6.120;2024-03-29T12:08:04;1.77;;;0.97;;
12910;SDS011;6523;49.758;6.120;2024-03-29T12:10:31;0.77;;;0.77;;
12910;SDS011;6523;49.758;6.120;2024-03-29T12:12:57;0.90;;;0.90;;
12910;SDS011;6523;49.758;6.120;2024-03-29T12:15:27;1.10;;;0.80;;
12910;SDS011;6523;49.758;6.120;2024-03-29T12:17:56;2.07;;;0.80;;
12910;SDS011;6523;49.758;6.120;2024-03-29T12:20:22;2.40;;;0.70;;
12910;SDS011;6523;49.758;6.120;2024-03-29T12:22:48;1.50;;;0.70;;
12910;SDS011;6523;49.758;6.120;2024-03-29T12:25:14;1.17;;;0.67;;
12910;SDS011;6523;49.758;6.120;2024-03-29T12:27:43;0.77;;;0.60;;
12910;SDS011;6523;49.758;6.120;2024-03-29T12:30:11;1.90;;;0.93;;
12910;SDS011;6523;49.758;6.120;2024-03-29T12:32:38;2.37;;;0.90;;
12910;SDS011;6523;49.758;6.120;2024-03-29T12:35:10;2.10;;;0.80;;
12910;SDS011;6523;49.758;6.120;2024-03-29T12:37:37;1.07;;;0.73;;
12910;SDS011;6523;49.758;6.120;2024-03-29T12:40:05;1.90;;;0.70;;
12910;SDS011;6523;49.758;6.120;2024-03-29T12:42:40;0.87;;;0.50;;
12910;SDS011;6523;49.758;6.120;2024-03-29T12:45:06;0.60;;;0.53;;
12910;SDS011;6523;49.758;6.120;2024-03-29T12:47:36;0.53;;;0.53;;
12910;SDS011;6523;49.758;6.120;2024-03-29T12:50:02;0.50;;;0.50;;
12910;SDS011;6523;49.758;6.120;2024-03-29T12:52:37;0.93;;;0.60;;
12910;SDS011;6523;49.758;6.120;2024-03-29T12:55:06;1.13;;;0.60;;
12910;SDS011;6523;49.758;6.120;2024-03-29T12:57:33;0.57;;;0.50;;
12910;SDS011;6523;49.758;6.120;2024-03-29T13:00:00;0.60;;;0.60;;
12910;SDS011;6523;49.758;6.120;2024-03-29T13:02:26;1.20;;;0.57;;
12910;SDS011;6523;49.758;6.120;2024-03-29T13:04:51;0.63;;;0.60;;
12910;SDS011;6523;49.758;6.120;2024-03-29T13:07:17;0.57;;;0.50;;
12910;SDS011;6523;49.758;6.120;2024-03-29T13:09:43;1.00;;;0.70;;
12910;SDS011;6523;49.758;6.120;2024-03-29T13:12:08;0.77;;;0.60;;
12910;SDS011;6523;49.758;6.120;2024-03-29T13:14:34;1.53;;;0.60;;
12910;SDS011;6523;49.758;6.120;2024-03-29T13:17:00;0.50;;;0.40;;
12910;SDS011;6523;49.758;6.120;2024-03-29T13:19:25;1.03;;;0.60;;
12910;SDS011;6523;49.758;6.120;2024-03-29T13:21:51;0.93;;;0.87;;
12910;SDS011;6523;49.758;6.120;2024-03-29T13:24:17;1.00;;;0.70;;
12910;SDS011;6523;49.758;6.120;2024-03-29T13:26:43;0.50;;;0.50;;
12910;SDS011;6523;49.758;6.120;2024-03-29T13:29:09;1.47;;;0.67;;
12910;SDS011;6523;49.758;6.120;2024-03-29T13:31:38;0.83;;;0.60;;
12910;SDS011;6523;49.758;6.120;2024-03-29T13:34:03;1.40;;;0.80;;
12910;SDS011;6523;49.758;6.120;2024-03-29T13:36:37;1.27;;;0.80;;
12910;SDS011;6523;49.758;6.120;2024-03-29T13:39:07;0.80;;;0.53;;
12910;SDS011;6523;49.758;6.120;2024-03-29T13:41:34;3.43;;;0.60;;
12910;SDS011;6523;49.758;6.120;2024-03-29T13:44:00;1.43;;;0.60;;
12910;SDS011;6523;49.758;6.120;2024-03-29T13:46:31;1.27;;;0.53;;
12910;SDS011;6523;49.758;6.120;2024-03-29T13:49:01;2.70;;;0.80;;
12910;SDS011;6523;49.758;6.120;2024-03-29T13:51:28;2.50;;;1.17;;
12910;SDS011;6523;49.758;6.120;2024-03-29T13:53:54;2.20;;;0.90;;
12910;SDS011;6523;49.758;6.120;2024-03-29T13:56:20;1.90;;;0.67;;
12910;SDS011;6523;49.758;6.120;2024-03-29T13:58:46;1.33;;;0.80;;
12910;SDS011;6523;49.758;6.120;2024-03-29T14:01:12;1.53;;;0.90;;
12910;SDS011;6523;49.758;6.120;2024-03-29T14:03:38;0.87;;;0.73;;
12910;SDS011;6523;49.758;6.120;2024-03-29T14:06:04;1.10;;;0.80;;
12910;SDS011;6523;49.758;6.120;2024-03-29T14:08:30;2.97;;;0.80;;
12910;SDS011;6523;49.758;6.120;2024-03-29T14:10:56;1.10;;;1.00;;
12910;SDS011;6523;49.758;6.120;2024-03-29T14:13:23;0.83;;;0.80;;
12910;SDS011;6523;49.758;6.120;2024-03-29T14:15:48;2.73;;;1.10;;
12910;SDS011;6523;49.758;6.120;2024-03-29T14:18:14;0.93;;;0.80;;
12910;SDS011;6523;49.758;6.120;2024-03-29T14:20:40;1.80;;;0.90;;
12910;SDS011;6523;49.758;6.120;2024-03-29T14:23:06;2.40;;;1.20;;
12910;SDS011;6523;49.758;6.120;2024-03-29T14:25:35;3.80;;;1.00;;
12910;SDS011;6523;49.758;6.120;2024-03-29T14:28:02;3.57;;;1.17;;
12910;SDS011;6523;49.758;6.120;2024-03-29T14:30:28;2.13;;;1.10;;
12910;SDS011;6523;49.758;6.120;2024-03-29T14:32:57;0.87;;;0.70;;
12910;SDS011;6523;49.758;6.120;2024-03-29T14:35:26;1.20;;;0.90;;
12910;SDS011;6523;49.758;6.120;2024-03-29T14:37:54;1.40;;;0.83;;
12910;SDS011;6523;49.758;6.120;2024-03-29T14:40:20;2.23;;;1.07;;
12910;SDS011;6523;49.758;6.120;2024-03-29T14:42:46;0.93;;;0.80;;
12910;SDS011;6523;49.758;6.120;2024-03-29T14:45:12;2.03;;;1.13;;
12910;SDS011;6523;49.758;6.120;2024-03-29T14:47:37;2.57;;;1.17;;
12910;SDS011;6523;49.758;6.120;2024-03-29T14:50:04;1.23;;;0.80;;
12910;SDS011;6523;49.758;6.120;2024-03-29T14:52:32;1.13;;;0.80;;
12910;SDS011;6523;49.758;6.120;2024-03-29T14:55:02;1.50;;;0.90;;
12910;SDS011;6523;49.758;6.120;2024-03-29T14:57:29;1.57;;;0.87;;
12910;SDS011;6523;49.758;6.120;2024-03-29T14:59:55;1.87;;;0.80;;
12910;SDS011;6523;49.758;6.120;2024-03-29T15:02:20;1.07;;;0.70;;
12910;SDS011;6523;49.758;6.120;2024-03-29T15:04:46;2.37;;;0.83;;
12910;SDS011;6523;49.758;6.120;2024-03-29T15:07:12;1.07;;;0.90;;
12910;SDS011;6523;49.758;6.120;2024-03-29T15:09:37;1.40;;;1.00;;